sensor_id;sensor_type;location;lat;lon;timestamp;temperature;humidity
10980;DHT22;5543;51.734;8.744;2023-04-24T00:00:28;11.80;99.90
10980;DHT22;5543;51.734;8.744;2023-04-24T00:02:58;11.70;99.90
10980;DHT22;5543;51.734;8.744;2023-04-24T00:05:26;11.90;99.90
10980;DHT22;5543;51.734;8.744;2023-04-24T00:07:54;11.60;99.90
10980;DHT22;5543;51.734;8.744;2023-04-24T00:10:22;11.60;99.90
10980;DHT22;5543;51.734;8.744;2023-04-24T00:12:50;11.50;99.90
10980;DHT22;5543;51.734;8.744;2023-04-24T00:15:18;11.50;99.90
10980;DHT22;5543;51.734;8.744;2023-04-24T00:17:46;11.40;99.90
10980;DHT22;5543;51.734;8.744;2023-04-24T00:20:16;11.40;99.90
10980;DHT22;5543;51.734;8.744;2023-04-24T00:22:45;11.20;99.90
10980;DHT22;5543;51.734;8.744;2023-04-24T00:25:14;11.20;99.90
10980;DHT22;5543;51.734;8.744;2023-04-24T00:27:42;11.10;99.90
10980;DHT22;5543;51.734;8.744;2023-04-24T00:30:10;11.10;99.90
10980;DHT22;5543;51.734;8.744;2023-04-24T00:32:38;11.00;99.90
10980;DHT22;5543;51.734;8.744;2023-04-24T00:35:07;11.00;99.90
10980;DHT22;5543;51.734;8.744;2023-04-24T00:37:36;10.90;99.90
10980;DHT22;5543;51.734;8.744;2023-04-24T00:40:05;10.90;99.90
10980;DHT22;5543;51.734;8.744;2023-04-24T00:42:34;11.00;99.90
10980;DHT22;5543;51.734;8.744;2023-04-24T00:45:02;11.00;99.90
10980;DHT22;5543;51.734;8.744;2023-04-24T00:47:32;11.00;99.90
10980;DHT22;5543;51.734;8.744;2023-04-24T00:50:02;11.00;99.90
10980;DHT22;5543;51.734;8.744;2023-04-24T00:52:30;10.90;99.90
10980;DHT22;5543;51.734;8.744;2023-04-24T00:55:00;11.00;99.90
10980;DHT22;5543;51.734;8.744;2023-04-24T00:57:28;10.90;99.90
10980;DHT22;5543;51.734;8.744;2023-04-24T00:59:56;10.90;99.90
10980;DHT22;5543;51.734;8.744;2023-04-24T01:02:25;11.00;99.90
10980;DHT22;5543;51.734;8.744;2023-04-24T01:04:53;10.90;99.90
10980;DHT22;5543;51.734;8.744;2023-04-24T01:07:22;11.00;99.90
10980;DHT22;5543;51.734;8.744;2023-04-24T01:09:50;11.00;99.90
10980;DHT22;5543;51.734;8.744;2023-04-24T01:12:22;11.00;99.90
10980;DHT22;5543;51.734;8.744;2023-04-24T01:14:50;11.00;99.90
10980;DHT22;5543;51.734;8.744;2023-04-24T01:17:18;11.10;99.90
10980;DHT22;5543;51.734;8.744;2023-04-24T01:19:47;11.10;99.90
10980;DHT22;5543;51.734;8.744;2023-04-24T01:22:16;11.20;99.90
10980;DHT22;5543;51.734;8.744;2023-04-24T01:24:44;11.20;99.90
10980;DHT22;5543;51.734;8.744;2023-04-24T01:27:12;11.30;99.90
10980;DHT22;5543;51.734;8.744;2023-04-24T01:29:41;11.30;99.90
10980;DHT22;5543;51.734;8.744;2023-04-24T01:32:09;11.30;99.90
10980;DHT22;5543;51.734;8.744;2023-04-24T01:34:38;11.40;99.90
10980;DHT22;5543;51.734;8.744;2023-04-24T01:37:06;11.40;99.90
10980;DHT22;5543;51.734;8.744;2023-04-24T01:39:36;11.40;99.90
10980;DHT22;5543;51.734;8.744;2023-04-24T01:42:05;11.50;99.90
10980;DHT22;5543;51.734;8.744;2023-04-24T01:44:33;11.40;99.90
10980;DHT22;5543;51.734;8.744;2023-04-24T01:47:01;11.40;99.90
10980;DHT22;5543;51.734;8.744;2023-04-24T01:49:29;11.40;99.90
10980;DHT22;5543;51.734;8.744;2023-04-24T01:51:57;11.30;99.90
10980;DHT22;5543;51.734;8.744;2023-04-24T01:54:26;11.20;99.90
10980;DHT22;5543;51.734;8.744;2023-04-24T01:56:55;11.20;99.90
10980;DHT22;5543;51.734;8.744;2023-04-24T01:59:23;11.10;99.90
10980;DHT22;5543;51.734;8.744;2023-04-24T02:01:53;11.10;99.90
10980;DHT22;5543;51.734;8.744;2023-04-24T02:04:21;11.00;99.90
10980;DHT22;5543;51.734;8.744;2023-04-24T02:06:49;11.10;99.90
10980;DHT22;5543;51.734;8.744;2023-04-24T02:09:17;11.10;99.90
10980;DHT22;5543;51.734;8.744;2023-04-24T02:11:46;11.10;99.90
10980;DHT22;5543;51.734;8.744;2023-04-24T02:14:15;11.20;99.90
10980;DHT22;5543;51.734;8.744;2023-04-24T02:16:43;11.20;99.90
10980;DHT22;5543;51.734;8.744;2023-04-24T02:19:12;11.30;99.90
10980;DHT22;5543;51.734;8.744;2023-04-24T02:21:40;11.20;99.90
10980;DHT22;5543;51.734;8.744;2023-04-24T02:24:08;11.20;99.90
10980;DHT22;5543;51.734;8.744;2023-04-24T02:26:36;11.10;99.90
10980;DHT22;5543;51.734;8.744;2023-04-24T02:29:04;11.00;99.90
10980;DHT22;5543;51.734;8.744;2023-04-24T02:31:33;11.00;99.90
10980;DHT22;5543;51.734;8.744;2023-04-24T02:34:01;11.00;99.90
10980;DHT22;5543;51.734;8.744;2023-04-24T02:36:30;11.00;99.90
10980;DHT22;5543;51.734;8.744;2023-04-24T02:38:58;10.90;99.90
10980;DHT22;5543;51.734;8.744;2023-04-24T02:41:26;11.00;99.90
10980;DHT22;5543;51.734;8.744;2023-04-24T02:43:58;11.00;99.90
10980;DHT22;5543;51.734;8.744;2023-04-24T02:46:26;11.00;99.90
10980;DHT22;5543;51.734;8.744;2023-04-24T02:48:56;11.00;99.90
10980;DHT22;5543;51.734;8.744;2023-04-24T02:51:24;11.00;99.90
10980;DHT22;5543;51.734;8.744;2023-04-24T02:53:52;11.10;99.90
10980;DHT22;5543;51.734;8.744;2023-04-24T02:56:20;11.00;99.90
10980;DHT22;5543;51.734;8.744;2023-04-24T02:58:48;11.00;99.90
10980;DHT22;5543;51.734;8.744;2023-04-24T03:01:16;11.00;99.90
10980;DHT22;5543;51.734;8.744;2023-04-24T03:03:45;10.90;99.90
10980;DHT22;5543;51.734;8.744;2023-04-24T03:06:14;11.00;99.90
10980;DHT22;5543;51.734;8.744;2023-04-24T03:08:43;11.00;99.90
10980;DHT22;5543;51.734;8.744;2023-04-24T03:11:11;11.10;99.90
10980;DHT22;5543;51.734;8.744;2023-04-24T03:13:39;11.10;99.90
10980;DHT22;5543;51.734;8.744;2023-04-24T03:16:07;11.10;99.90
10980;DHT22;5543;51.734;8.744;2023-04-24T03:18:35;11.10;99.90
10980;DHT22;5543;51.734;8.744;2023-04-24T03:21:03;11.10;99.90
10980;DHT22;5543;51.734;8.744;2023-04-24T03:23:33;11.10;99.90
10980;DHT22;5543;51.734;8.744;2023-04-24T03:26:01;11.20;99.90
10980;DHT22;5543;51.734;8.744;2023-04-24T03:28:29;11.20;99.90
10980;DHT22;5543;51.734;8.744;2023-04-24T03:30:57;11.30;99.90
10980;DHT22;5543;51.734;8.744;2023-04-24T03:33:25;11.30;99.90
10980;DHT22;5543;51.734;8.744;2023-04-24T03:35:53;11.30;99.90
10980;DHT22;5543;51.734;8.744;2023-04-24T03:38:21;11.20;99.90
10980;DHT22;5543;51.734;8.744;2023-04-24T03:40:51;11.30;99.90
10980;DHT22;5543;51.734;8.744;2023-04-24T03:43:19;11.40;99.90
10980;DHT22;5543;51.734;8.744;2023-04-24T03:45:47;11.20;99.90
10980;DHT22;5543;51.734;8.744;2023-04-24T03:48:15;11.20;99.90
10980;DHT22;5543;51.734;8.744;2023-04-24T03:50:43;11.30;99.90
10980;DHT22;5543;51.734;8.744;2023-04-24T03:53:12;11.30;99.90
10980;DHT22;5543;51.734;8.744;2023-04-24T03:55:40;11.30;99.90
10980;DHT22;5543;51.734;8.744;2023-04-24T03:58:09;11.30;99.90
10980;DHT22;5543;51.734;8.744;2023-04-24T04:00:38;11.40;99.90
10980;DHT22;5543;51.734;8.744;2023-04-24T04:03:07;11.40;99.90
10980;DHT22;5543;51.734;8.744;2023-04-24T04:05:35;11.40;99.90
10980;DHT22;5543;51.734;8.744;2023-04-24T04:08:03;11.30;99.90
10980;DHT22;5543;51.734;8.744;2023-04-24T04:10:31;11.30;99.90
10980;DHT22;5543;51.734;8.744;2023-04-24T04:12:59;11.20;99.90
10980;DHT22;5543;51.734;8.744;2023-04-24T04:15:29;11.10;99.90
10980;DHT22;5543;51.734;8.744;2023-04-24T04:17:57;11.00;99.90
10980;DHT22;5543;51.734;8.744;2023-04-24T04:20:25;10.90;99.90
10980;DHT22;5543;51.734;8.744;2023-04-24T04:22:53;10.90;99.90
10980;DHT22;5543;51.734;8.744;2023-04-24T04:25:22;10.70;99.90
10980;DHT22;5543;51.734;8.744;2023-04-24T04:27:50;10.60;99.90
10980;DHT22;5543;51.734;8.744;2023-04-24T04:30:19;10.50;99.90
10980;DHT22;5543;51.734;8.744;2023-04-24T04:32:49;10.30;99.90
10980;DHT22;5543;51.734;8.744;2023-04-24T04:35:18;10.20;99.90
10980;DHT22;5543;51.734;8.744;2023-04-24T04:37:48;10.10;99.90
10980;DHT22;5543;51.734;8.744;2023-04-24T04:40:18;10.10;99.90
10980;DHT22;5543;51.734;8.744;2023-04-24T04:42:46;10.10;99.90
10980;DHT22;5543;51.734;8.744;2023-04-24T04:45:14;10.10;99.90
10980;DHT22;5543;51.734;8.744;2023-04-24T04:47:43;10.10;99.90
10980;DHT22;5543;51.734;8.744;2023-04-24T04:50:13;10.10;99.90
10980;DHT22;5543;51.734;8.744;2023-04-24T04:52:43;10.20;99.90
10980;DHT22;5543;51.734;8.744;2023-04-24T04:55:11;10.10;99.90
10980;DHT22;5543;51.734;8.744;2023-04-24T04:57:40;10.20;99.90
10980;DHT22;5543;51.734;8.744;2023-04-24T05:00:09;10.10;99.90
10980;DHT22;5543;51.734;8.744;2023-04-24T05:02:38;10.10;99.90
10980;DHT22;5543;51.734;8.744;2023-04-24T05:05:07;10.20;99.90
10980;DHT22;5543;51.734;8.744;2023-04-24T05:07:37;10.20;99.90
10980;DHT22;5543;51.734;8.744;2023-04-24T05:10:06;10.20;99.90
10980;DHT22;5543;51.734;8.744;2023-04-24T05:12:35;10.20;99.90
10980;DHT22;5543;51.734;8.744;2023-04-24T05:15:03;10.30;99.90
10980;DHT22;5543;51.734;8.744;2023-04-24T05:17:34;10.30;99.90
10980;DHT22;5543;51.734;8.744;2023-04-24T05:20:02;10.30;99.90
10980;DHT22;5543;51.734;8.744;2023-04-24T05:22:32;10.30;99.90
10980;DHT22;5543;51.734;8.744;2023-04-24T05:25:01;10.40;99.90
10980;DHT22;5543;51.734;8.744;2023-04-24T05:27:30;10.40;99.90
10980;DHT22;5543;51.734;8.744;2023-04-24T05:29:58;10.30;99.90
10980;DHT22;5543;51.734;8.744;2023-04-24T05:32:26;10.30;99.90
10980;DHT22;5543;51.734;8.744;2023-04-24T05:34:54;10.30;99.90
10980;DHT22;5543;51.734;8.744;2023-04-24T05:37:23;10.30;99.90
10980;DHT22;5543;51.734;8.744;2023-04-24T05:39:51;10.40;99.90
10980;DHT22;5543;51.734;8.744;2023-04-24T05:42:20;10.30;99.90
10980;DHT22;5543;51.734;8.744;2023-04-24T05:44:49;10.40;99.90
10980;DHT22;5543;51.734;8.744;2023-04-24T05:47:20;10.30;99.90
10980;DHT22;5543;51.734;8.744;2023-04-24T05:49:49;10.30;99.90
10980;DHT22;5543;51.734;8.744;2023-04-24T05:52:17;10.30;99.90
10980;DHT22;5543;51.734;8.744;2023-04-24T05:54:45;10.30;99.90
10980;DHT22;5543;51.734;8.744;2023-04-24T05:57:13;10.20;99.90
10980;DHT22;5543;51.734;8.744;2023-04-24T05:59:43;10.20;99.90
10980;DHT22;5543;51.734;8.744;2023-04-24T06:02:12;10.10;99.90
10980;DHT22;5543;51.734;8.744;2023-04-24T06:04:40;10.10;99.90
10980;DHT22;5543;51.734;8.744;2023-04-24T06:07:10;10.10;99.90
10980;DHT22;5543;51.734;8.744;2023-04-24T06:09:38;10.10;99.90
10980;DHT22;5543;51.734;8.744;2023-04-24T06:12:07;10.20;99.90
10980;DHT22;5543;51.734;8.744;2023-04-24T06:14:38;10.30;99.90
10980;DHT22;5543;51.734;8.744;2023-04-24T06:17:08;10.30;99.90
10980;DHT22;5543;51.734;8.744;2023-04-24T06:19:36;10.40;99.90
10980;DHT22;5543;51.734;8.744;2023-04-24T06:22:04;10.50;99.90
10980;DHT22;5543;51.734;8.744;2023-04-24T06:24:35;10.60;99.90
10980;DHT22;5543;51.734;8.744;2023-04-24T06:27:03;10.80;99.90
10980;DHT22;5543;51.734;8.744;2023-04-24T06:29:32;11.10;99.90
10980;DHT22;5543;51.734;8.744;2023-04-24T06:32:01;11.30;99.90
10980;DHT22;5543;51.734;8.744;2023-04-24T06:34:30;11.40;99.90
10980;DHT22;5543;51.734;8.744;2023-04-24T06:36:59;11.40;99.90
10980;DHT22;5543;51.734;8.744;2023-04-24T06:39:27;11.40;99.90
10980;DHT22;5543;51.734;8.744;2023-04-24T06:41:55;11.40;99.90
10980;DHT22;5543;51.734;8.744;2023-04-24T06:44:24;11.40;99.90
10980;DHT22;5543;51.734;8.744;2023-04-24T06:46:52;11.30;99.90
10980;DHT22;5543;51.734;8.744;2023-04-24T06:49:20;11.40;99.90
10980;DHT22;5543;51.734;8.744;2023-04-24T06:51:49;11.50;99.90
10980;DHT22;5543;51.734;8.744;2023-04-24T06:54:17;11.50;99.90
10980;DHT22;5543;51.734;8.744;2023-04-24T06:56:46;11.40;99.90
10980;DHT22;5543;51.734;8.744;2023-04-24T06:59:15;11.30;99.90
10980;DHT22;5543;51.734;8.744;2023-04-24T07:01:43;11.40;99.90
10980;DHT22;5543;51.734;8.744;2023-04-24T07:04:11;11.40;99.90
10980;DHT22;5543;51.734;8.744;2023-04-24T07:06:40;11.50;99.90
10980;DHT22;5543;51.734;8.744;2023-04-24T07:09:09;11.60;99.90
10980;DHT22;5543;51.734;8.744;2023-04-24T07:11:38;11.60;99.40
10980;DHT22;5543;51.734;8.744;2023-04-24T07:14:07;11.50;99.40
10980;DHT22;5543;51.734;8.744;2023-04-24T07:16:35;11.50;99.90
10980;DHT22;5543;51.734;8.744;2023-04-24T07:19:03;11.30;99.60
10980;DHT22;5543;51.734;8.744;2023-04-24T07:21:32;11.30;99.20
10980;DHT22;5543;51.734;8.744;2023-04-24T07:24:00;11.40;99.30
10980;DHT22;5543;51.734;8.744;2023-04-24T07:26:30;11.30;99.80
10980;DHT22;5543;51.734;8.744;2023-04-24T07:28:58;11.30;99.90
10980;DHT22;5543;51.734;8.744;2023-04-24T07:31:27;11.40;99.30
10980;DHT22;5543;51.734;8.744;2023-04-24T07:33:55;11.40;99.70
10980;DHT22;5543;51.734;8.744;2023-04-24T07:36:24;11.40;99.90
10980;DHT22;5543;51.734;8.744;2023-04-24T07:38:52;11.40;99.90
10980;DHT22;5543;51.734;8.744;2023-04-24T07:41:27;11.30;99.40
10980;DHT22;5543;51.734;8.744;2023-04-24T07:43:57;11.40;99.50
10980;DHT22;5543;51.734;8.744;2023-04-24T07:46:25;11.40;99.90
10980;DHT22;5543;51.734;8.744;2023-04-24T07:48:56;11.50;99.90
10980;DHT22;5543;51.734;8.744;2023-04-24T07:51:39;11.60;99.10
10980;DHT22;5543;51.734;8.744;2023-04-24T07:54:08;11.60;98.90
10980;DHT22;5543;51.734;8.744;2023-04-24T07:56:37;11.70;99.70
10980;DHT22;5543;51.734;8.744;2023-04-24T07:59:07;11.90;99.30
10980;DHT22;5543;51.734;8.744;2023-04-24T08:01:36;12.00;98.90
10980;DHT22;5543;51.734;8.744;2023-04-24T08:04:04;12.20;99.20
10980;DHT22;5543;51.734;8.744;2023-04-24T08:06:33;12.20;98.80
10980;DHT22;5543;51.734;8.744;2023-04-24T08:09:03;12.20;99.80
10980;DHT22;5543;51.734;8.744;2023-04-24T08:11:31;12.10;99.20
10980;DHT22;5543;51.734;8.744;2023-04-24T08:13:59;12.10;98.90
10980;DHT22;5543;51.734;8.744;2023-04-24T08:16:29;11.90;98.70
10980;DHT22;5543;51.734;8.744;2023-04-24T08:18:57;11.90;98.40
10980;DHT22;5543;51.734;8.744;2023-04-24T08:21:25;11.90;98.50
10980;DHT22;5543;51.734;8.744;2023-04-24T08:23:53;11.90;99.10
10980;DHT22;5543;51.734;8.744;2023-04-24T08:26:22;11.90;99.40
10980;DHT22;5543;51.734;8.744;2023-04-24T08:28:50;11.90;99.40
10980;DHT22;5543;51.734;8.744;2023-04-24T08:31:18;11.90;99.00
10980;DHT22;5543;51.734;8.744;2023-04-24T08:33:47;11.90;99.30
10980;DHT22;5543;51.734;8.744;2023-04-24T08:36:16;11.90;99.40
10980;DHT22;5543;51.734;8.744;2023-04-24T08:38:44;11.80;99.80
10980;DHT22;5543;51.734;8.744;2023-04-24T08:41:14;11.80;98.80
10980;DHT22;5543;51.734;8.744;2023-04-24T08:43:43;11.70;98.70
10980;DHT22;5543;51.734;8.744;2023-04-24T08:46:13;11.80;98.90
10980;DHT22;5543;51.734;8.744;2023-04-24T08:48:43;11.80;98.70
10980;DHT22;5543;51.734;8.744;2023-04-24T08:51:13;12.00;99.20
10980;DHT22;5543;51.734;8.744;2023-04-24T08:53:42;12.10;99.60
10980;DHT22;5543;51.734;8.744;2023-04-24T08:56:11;12.20;99.00
10980;DHT22;5543;51.734;8.744;2023-04-24T08:58:40;12.30;98.60
10980;DHT22;5543;51.734;8.744;2023-04-24T09:01:09;12.50;98.20
10980;DHT22;5543;51.734;8.744;2023-04-24T09:03:37;13.10;97.70
10980;DHT22;5543;51.734;8.744;2023-04-24T09:06:08;13.80;97.80
10980;DHT22;5543;51.734;8.744;2023-04-24T09:08:39;14.00;96.60
10980;DHT22;5543;51.734;8.744;2023-04-24T09:11:09;13.90;96.40
10980;DHT22;5543;51.734;8.744;2023-04-24T09:13:37;13.70;97.00
10980;DHT22;5543;51.734;8.744;2023-04-24T09:16:06;13.20;96.00
10980;DHT22;5543;51.734;8.744;2023-04-24T09:18:34;12.90;96.10
10980;DHT22;5543;51.734;8.744;2023-04-24T09:21:04;12.50;96.70
10980;DHT22;5543;51.734;8.744;2023-04-24T09:23:34;12.50;98.60
10980;DHT22;5543;51.734;8.744;2023-04-24T09:26:04;12.60;98.30
10980;DHT22;5543;51.734;8.744;2023-04-24T09:28:35;12.90;98.30
10980;DHT22;5543;51.734;8.744;2023-04-24T09:31:07;13.10;97.70
10980;DHT22;5543;51.734;8.744;2023-04-24T09:33:36;13.10;97.60
10980;DHT22;5543;51.734;8.744;2023-04-24T09:36:05;13.40;98.10
10980;DHT22;5543;51.734;8.744;2023-04-24T09:38:35;13.30;97.60
10980;DHT22;5543;51.734;8.744;2023-04-24T09:41:06;13.30;97.90
10980;DHT22;5543;51.734;8.744;2023-04-24T09:43:35;13.10;98.30
10980;DHT22;5543;51.734;8.744;2023-04-24T09:46:07;12.80;97.70
10980;DHT22;5543;51.734;8.744;2023-04-24T09:48:37;12.70;97.90
10980;DHT22;5543;51.734;8.744;2023-04-24T09:51:07;12.70;97.10
10980;DHT22;5543;51.734;8.744;2023-04-24T09:53:37;12.60;97.70
10980;DHT22;5543;51.734;8.744;2023-04-24T09:56:09;12.70;98.60
10980;DHT22;5543;51.734;8.744;2023-04-24T09:58:39;12.90;97.90
10980;DHT22;5543;51.734;8.744;2023-04-24T10:01:07;13.60;96.60
10980;DHT22;5543;51.734;8.744;2023-04-24T10:03:36;14.10;95.70
10980;DHT22;5543;51.734;8.744;2023-04-24T10:06:04;14.50;95.30
10980;DHT22;5543;51.734;8.744;2023-04-24T10:08:37;14.50;95.30
10980;DHT22;5543;51.734;8.744;2023-04-24T10:11:05;14.00;95.80
10980;DHT22;5543;51.734;8.744;2023-04-24T10:13:35;13.50;95.20
10980;DHT22;5543;51.734;8.744;2023-04-24T10:16:04;13.30;96.50
10980;DHT22;5543;51.734;8.744;2023-04-24T10:18:33;13.10;96.40
10980;DHT22;5543;51.734;8.744;2023-04-24T10:21:02;12.90;97.10
10980;DHT22;5543;51.734;8.744;2023-04-24T10:23:32;12.70;97.50
10980;DHT22;5543;51.734;8.744;2023-04-24T10:26:00;12.60;98.10
10980;DHT22;5543;51.734;8.744;2023-04-24T10:28:29;12.70;99.40
10980;DHT22;5543;51.734;8.744;2023-04-24T10:31:00;13.00;99.70
10980;DHT22;5543;51.734;8.744;2023-04-24T10:33:29;13.30;98.60
10980;DHT22;5543;51.734;8.744;2023-04-24T10:35:58;13.30;97.90
10980;DHT22;5543;51.734;8.744;2023-04-24T10:38:28;13.60;98.40
10980;DHT22;5543;51.734;8.744;2023-04-24T10:41:07;13.20;97.40
10980;DHT22;5543;51.734;8.744;2023-04-24T10:43:36;13.00;97.30
10980;DHT22;5543;51.734;8.744;2023-04-24T10:46:06;12.90;97.80
10980;DHT22;5543;51.734;8.744;2023-04-24T10:48:35;12.80;98.30
10980;DHT22;5543;51.734;8.744;2023-04-24T10:51:03;12.70;98.60
10980;DHT22;5543;51.734;8.744;2023-04-24T10:53:35;12.50;98.60
10980;DHT22;5543;51.734;8.744;2023-04-24T10:56:05;12.30;97.70
10980;DHT22;5543;51.734;8.744;2023-04-24T10:58:38;12.20;98.20
10980;DHT22;5543;51.734;8.744;2023-04-24T11:01:08;12.00;97.90
10980;DHT22;5543;51.734;8.744;2023-04-24T11:03:36;11.60;98.50
10980;DHT22;5543;51.734;8.744;2023-04-24T11:06:09;11.40;99.10
10980;DHT22;5543;51.734;8.744;2023-04-24T11:08:38;11.10;99.10
10980;DHT22;5543;51.734;8.744;2023-04-24T11:11:11;10.60;99.90
10980;DHT22;5543;51.734;8.744;2023-04-24T11:14:02;10.50;99.90
10980;DHT22;5543;51.734;8.744;2023-04-24T11:16:34;10.30;99.90
10980;DHT22;5543;51.734;8.744;2023-04-24T11:19:05;10.10;99.90
10980;DHT22;5543;51.734;8.744;2023-04-24T11:21:42;10.20;99.90
10980;DHT22;5543;51.734;8.744;2023-04-24T11:24:48;10.10;99.90
10980;DHT22;5543;51.734;8.744;2023-04-24T11:27:18;10.10;99.90
10980;DHT22;5543;51.734;8.744;2023-04-24T11:29:48;10.40;99.90
10980;DHT22;5543;51.734;8.744;2023-04-24T11:32:26;10.50;99.90
10980;DHT22;5543;51.734;8.744;2023-04-24T11:34:56;10.40;99.90
10980;DHT22;5543;51.734;8.744;2023-04-24T11:37:27;10.50;99.90
10980;DHT22;5543;51.734;8.744;2023-04-24T11:39:58;10.60;99.90
10980;DHT22;5543;51.734;8.744;2023-04-24T11:42:28;10.80;99.90
10980;DHT22;5543;51.734;8.744;2023-04-24T11:44:56;10.90;99.90
10980;DHT22;5543;51.734;8.744;2023-04-24T11:47:32;11.00;99.90
10980;DHT22;5543;51.734;8.744;2023-04-24T11:50:01;11.00;99.90
10980;DHT22;5543;51.734;8.744;2023-04-24T11:52:30;10.90;99.90
10980;DHT22;5543;51.734;8.744;2023-04-24T11:54:59;10.90;99.90
10980;DHT22;5543;51.734;8.744;2023-04-24T11:57:28;10.90;99.90
10980;DHT22;5543;51.734;8.744;2023-04-24T12:00:00;10.80;99.90
10980;DHT22;5543;51.734;8.744;2023-04-24T12:02:32;10.70;99.90
10980;DHT22;5543;51.734;8.744;2023-04-24T12:05:03;10.60;99.90
10980;DHT22;5543;51.734;8.744;2023-04-24T12:07:40;10.40;99.90
10980;DHT22;5543;51.734;8.744;2023-04-24T12:10:09;10.40;99.90
10980;DHT22;5543;51.734;8.744;2023-04-24T12:12:38;10.30;99.90
10980;DHT22;5543;51.734;8.744;2023-04-24T12:15:07;10.20;99.90
10980;DHT22;5543;51.734;8.744;2023-04-24T12:17:41;10.00;99.90
10980;DHT22;5543;51.734;8.744;2023-04-24T12:20:10;9.90;99.90
10980;DHT22;5543;51.734;8.744;2023-04-24T12:22:45;9.70;99.90
10980;DHT22;5543;51.734;8.744;2023-04-24T12:25:15;9.60;99.90
10980;DHT22;5543;51.734;8.744;2023-04-24T12:27:44;9.60;99.90
10980;DHT22;5543;51.734;8.744;2023-04-24T12:30:14;9.60;99.90
10980;DHT22;5543;51.734;8.744;2023-04-24T12:32:45;9.60;99.90
10980;DHT22;5543;51.734;8.744;2023-04-24T12:35:14;9.70;99.90
10980;DHT22;5543;51.734;8.744;2023-04-24T12:37:47;9.80;99.90
10980;DHT22;5543;51.734;8.744;2023-04-24T12:40:15;9.60;99.90
10980;DHT22;5543;51.734;8.744;2023-04-24T12:42:45;9.60;99.90
10980;DHT22;5543;51.734;8.744;2023-04-24T12:45:15;9.60;99.90
10980;DHT22;5543;51.734;8.744;2023-04-24T12:47:45;9.60;99.90
10980;DHT22;5543;51.734;8.744;2023-04-24T12:50:15;9.60;99.90
10980;DHT22;5543;51.734;8.744;2023-04-24T12:52:44;9.50;99.90
10980;DHT22;5543;51.734;8.744;2023-04-24T12:55:12;9.40;99.90
10980;DHT22;5543;51.734;8.744;2023-04-24T12:57:40;9.00;99.90
10980;DHT22;5543;51.734;8.744;2023-04-24T13:00:09;9.20;99.90
10980;DHT22;5543;51.734;8.744;2023-04-24T13:02:37;9.20;99.90
10980;DHT22;5543;51.734;8.744;2023-04-24T13:05:08;9.20;99.90
10980;DHT22;5543;51.734;8.744;2023-04-24T13:07:38;9.30;99.90
10980;DHT22;5543;51.734;8.744;2023-04-24T13:10:07;9.30;99.90
10980;DHT22;5543;51.734;8.744;2023-04-24T13:12:36;9.30;99.90
10980;DHT22;5543;51.734;8.744;2023-04-24T13:15:06;9.40;99.90
10980;DHT22;5543;51.734;8.744;2023-04-24T13:17:34;9.50;99.90
10980;DHT22;5543;51.734;8.744;2023-04-24T13:20:03;9.60;99.90
10980;DHT22;5543;51.734;8.744;2023-04-24T13:22:33;9.60;99.90
10980;DHT22;5543;51.734;8.744;2023-04-24T13:25:01;9.70;99.90
10980;DHT22;5543;51.734;8.744;2023-04-24T13:27:30;9.70;99.90
10980;DHT22;5543;51.734;8.744;2023-04-24T13:29:58;9.70;99.90
10980;DHT22;5543;51.734;8.744;2023-04-24T13:32:27;9.60;99.90
10980;DHT22;5543;51.734;8.744;2023-04-24T13:34:56;9.70;99.90
10980;DHT22;5543;51.734;8.744;2023-04-24T13:37:24;9.70;99.90
10980;DHT22;5543;51.734;8.744;2023-04-24T13:39:54;9.70;99.90
10980;DHT22;5543;51.734;8.744;2023-04-24T13:42:22;9.70;99.90
10980;DHT22;5543;51.734;8.744;2023-04-24T13:44:50;9.70;99.90
10980;DHT22;5543;51.734;8.744;2023-04-24T13:47:18;9.80;99.90
10980;DHT22;5543;51.734;8.744;2023-04-24T13:49:46;10.00;99.90
10980;DHT22;5543;51.734;8.744;2023-04-24T13:52:15;9.90;99.90
10980;DHT22;5543;51.734;8.744;2023-04-24T13:54:43;9.90;99.90
10980;DHT22;5543;51.734;8.744;2023-04-24T13:57:14;9.90;99.90
10980;DHT22;5543;51.734;8.744;2023-04-24T13:59:43;9.90;99.90
10980;DHT22;5543;51.734;8.744;2023-04-24T14:02:11;9.80;99.90
10980;DHT22;5543;51.734;8.744;2023-04-24T14:04:40;9.90;99.90
10980;DHT22;5543;51.734;8.744;2023-04-24T14:07:08;10.00;99.90
10980;DHT22;5543;51.734;8.744;2023-04-24T14:09:37;10.00;99.90
10980;DHT22;5543;51.734;8.744;2023-04-24T14:12:05;10.10;99.90
10980;DHT22;5543;51.734;8.744;2023-04-24T14:14:35;10.00;99.90
10980;DHT22;5543;51.734;8.744;2023-04-24T14:17:03;9.90;99.90
10980;DHT22;5543;51.734;8.744;2023-04-24T14:19:31;9.90;99.90
10980;DHT22;5543;51.734;8.744;2023-04-24T14:22:00;9.90;99.90
10980;DHT22;5543;51.734;8.744;2023-04-24T14:24:28;9.80;99.90
10980;DHT22;5543;51.734;8.744;2023-04-24T14:26:57;9.80;99.90
10980;DHT22;5543;51.734;8.744;2023-04-24T14:29:26;9.80;99.90
10980;DHT22;5543;51.734;8.744;2023-04-24T14:31:55;9.70;99.90
10980;DHT22;5543;51.734;8.744;2023-04-24T14:34:23;9.90;99.90
10980;DHT22;5543;51.734;8.744;2023-04-24T14:36:52;9.80;99.90
10980;DHT22;5543;51.734;8.744;2023-04-24T14:39:21;9.70;99.90
10980;DHT22;5543;51.734;8.744;2023-04-24T14:41:49;9.70;99.90
10980;DHT22;5543;51.734;8.744;2023-04-24T14:44:17;9.60;99.90
10980;DHT22;5543;51.734;8.744;2023-04-24T14:46:46;9.70;99.90
10980;DHT22;5543;51.734;8.744;2023-04-24T14:49:15;9.60;99.90
10980;DHT22;5543;51.734;8.744;2023-04-24T14:51:44;9.70;99.90
10980;DHT22;5543;51.734;8.744;2023-04-24T14:54:13;9.80;99.90
10980;DHT22;5543;51.734;8.744;2023-04-24T14:56:41;9.90;99.90
10980;DHT22;5543;51.734;8.744;2023-04-24T14:59:11;10.10;99.90
10980;DHT22;5543;51.734;8.744;2023-04-24T15:01:39;10.20;99.90
10980;DHT22;5543;51.734;8.744;2023-04-24T15:04:07;10.20;99.90
10980;DHT22;5543;51.734;8.744;2023-04-24T15:06:37;10.20;99.90
10980;DHT22;5543;51.734;8.744;2023-04-24T15:09:05;10.20;99.90
10980;DHT22;5543;51.734;8.744;2023-04-24T15:11:34;10.20;99.90
10980;DHT22;5543;51.734;8.744;2023-04-24T15:14:02;10.20;99.90
10980;DHT22;5543;51.734;8.744;2023-04-24T15:16:31;10.20;99.90
10980;DHT22;5543;51.734;8.744;2023-04-24T15:19:00;10.20;99.90
10980;DHT22;5543;51.734;8.744;2023-04-24T15:21:28;10.20;99.90
10980;DHT22;5543;51.734;8.744;2023-04-24T15:23:58;10.10;99.90
10980;DHT22;5543;51.734;8.744;2023-04-24T15:26:26;10.00;99.90
10980;DHT22;5543;51.734;8.744;2023-04-24T15:28:54;9.90;99.90
10980;DHT22;5543;51.734;8.744;2023-04-24T15:31:23;9.90;99.90
10980;DHT22;5543;51.734;8.744;2023-04-24T15:33:51;9.90;99.90
10980;DHT22;5543;51.734;8.744;2023-04-24T15:36:20;9.90;99.90
10980;DHT22;5543;51.734;8.744;2023-04-24T15:38:49;9.90;99.90
10980;DHT22;5543;51.734;8.744;2023-04-24T15:41:19;9.90;99.90
10980;DHT22;5543;51.734;8.744;2023-04-24T15:43:47;10.00;99.90
10980;DHT22;5543;51.734;8.744;2023-04-24T15:46:16;10.00;99.90
10980;DHT22;5543;51.734;8.744;2023-04-24T15:48:44;9.90;99.90
10980;DHT22;5543;51.734;8.744;2023-04-24T15:51:13;9.90;99.90
10980;DHT22;5543;51.734;8.744;2023-04-24T15:53:41;9.90;99.90
10980;DHT22;5543;51.734;8.744;2023-04-24T15:56:09;9.90;99.90
10980;DHT22;5543;51.734;8.744;2023-04-24T15:58:39;9.80;99.90
10980;DHT22;5543;51.734;8.744;2023-04-24T16:01:07;9.80;99.90